sensor_id;sensor_type;location;lat;lon;timestamp;P1;durP1;ratioP1;P2;durP2;ratioP2
10715;SDS011;5409;42.620;23.316;2022-09-27T00:00:15;3.72;;;3.30;;
10715;SDS011;5409;42.620;23.316;2022-09-27T00:02:41;3.33;;;3.03;;
10715;SDS011;5409;42.620;23.316;2022-09-27T00:05:09;4.80;;;4.30;;
10715;SDS011;5409;42.620;23.316;2022-09-27T00:07:35;7.95;;;7.15;;
10715;SDS011;5409;42.620;23.316;2022-09-27T00:10:03;8.23;;;7.22;;
10715;SDS011;5409;42.620;23.316;2022-09-27T00:12:31;10.45;;;9.40;;
10715;SDS011;5409;42.620;23.316;2022-09-27T00:14:57;14.63;;;13.10;;
10715;SDS011;5409;42.620;23.316;2022-09-27T00:17:25;16.20;;;13.20;;
10715;SDS011;5409;42.620;23.316;2022-09-27T00:19:51;16.10;;;12.40;;
10715;SDS011;5409;42.620;23.316;2022-09-27T00:22:20;14.27;;;11.43;;
10715;SDS011;5409;42.620;23.316;2022-09-27T00:24:46;13.88;;;11.60;;
10715;SDS011;5409;42.620;23.316;2022-09-27T00:27:13;13.75;;;12.02;;
10715;SDS011;5409;42.620;23.316;2022-09-27T00:29:40;14.60;;;12.20;;
10715;SDS011;5409;42.620;23.316;2022-09-27T00:32:07;15.45;;;12.18;;
10715;SDS011;5409;42.620;23.316;2022-09-27T00:34:33;12.65;;;11.35;;
10715;SDS011;5409;42.620;23.316;2022-09-27T00:37:00;14.52;;;12.98;;
10715;SDS011;5409;42.620;23.316;2022-09-27T00:39:26;15.98;;;12.43;;
10715;SDS011;5409;42.620;23.316;2022-09-27T00:41:53;14.02;;;12.23;;
10715;SDS011;5409;42.620;23.316;2022-09-27T00:47:07;11.25;;;10.10;;
10715;SDS011;5409;42.620;23.316;2022-09-27T00:49:35;12.38;;;11.13;;
10715;SDS011;5409;42.620;23.316;2022-09-27T00:52:04;10.95;;;9.80;;
10715;SDS011;5409;42.620;23.316;2022-09-27T00:54:33;13.98;;;10.63;;
10715;SDS011;5409;42.620;23.316;2022-09-27T00:57:02;9.38;;;8.27;;
10715;SDS011;5409;42.620;23.316;2022-09-27T00:59:29;11.32;;;8.52;;
10715;SDS011;5409;42.620;23.316;2022-09-27T01:01:58;11.00;;;9.80;;
10715;SDS011;5409;42.620;23.316;2022-09-27T01:04:26;12.20;;;8.73;;
10715;SDS011;5409;42.620;23.316;2022-09-27T01:06:54;13.25;;;9.15;;
10715;SDS011;5409;42.620;23.316;2022-09-27T01:09:21;11.40;;;8.65;;
10715;SDS011;5409;42.620;23.316;2022-09-27T01:11:50;9.85;;;8.68;;
10715;SDS011;5409;42.620;23.316;2022-09-27T01:14:23;10.02;;;8.48;;
10715;SDS011;5409;42.620;23.316;2022-09-27T01:16:53;9.63;;;8.30;;
10715;SDS011;5409;42.620;23.316;2022-09-27T01:19:29;13.15;;;9.18;;
10715;SDS011;5409;42.620;23.316;2022-09-27T01:22:02;13.48;;;8.70;;
10715;SDS011;5409;42.620;23.316;2022-09-27T01:27:46;12.02;;;9.35;;
10715;SDS011;5409;42.620;23.316;2022-09-27T01:30:19;8.63;;;7.00;;
10715;SDS011;5409;42.620;23.316;2022-09-27T01:32:47;10.00;;;8.10;;
10715;SDS011;5409;42.620;23.316;2022-09-27T01:35:19;10.52;;;7.82;;
10715;SDS011;5409;42.620;23.316;2022-09-27T01:37:48;12.77;;;9.43;;
10715;SDS011;5409;42.620;23.316;2022-09-27T01:40:19;13.73;;;10.05;;
10715;SDS011;5409;42.620;23.316;2022-09-27T01:42:51;28.00;;;11.93;;
10715;SDS011;5409;42.620;23.316;2022-09-27T01:45:22;94.75;;;16.60;;
10715;SDS011;5409;42.620;23.316;2022-09-27T01:47:50;104.60;;;15.93;;
10715;SDS011;5409;42.620;23.316;2022-09-27T01:50:18;14.85;;;11.85;;
10715;SDS011;5409;42.620;23.316;2022-09-27T01:52:47;11.50;;;10.30;;
10715;SDS011;5409;42.620;23.316;2022-09-27T01:55:14;11.95;;;10.75;;
10715;SDS011;5409;42.620;23.316;2022-09-27T01:57:42;12.48;;;11.18;;
10715;SDS011;5409;42.620;23.316;2022-09-27T02:00:10;13.00;;;10.25;;
10715;SDS011;5409;42.620;23.316;2022-09-27T02:02:38;11.13;;;9.98;;
10715;SDS011;5409;42.620;23.316;2022-09-27T02:05:06;14.13;;;10.60;;
10715;SDS011;5409;42.620;23.316;2022-09-27T02:07:35;14.05;;;11.20;;
10715;SDS011;5409;42.620;23.316;2022-09-27T02:10:03;11.82;;;10.57;;
10715;SDS011;5409;42.620;23.316;2022-09-27T02:12:32;12.13;;;10.80;;
10715;SDS011;5409;42.620;23.316;2022-09-27T02:15:00;15.50;;;11.27;;
10715;SDS011;5409;42.620;23.316;2022-09-27T02:17:30;27.98;;;14.05;;
10715;SDS011;5409;42.620;23.316;2022-09-27T02:20:03;117.45;;;15.93;;
10715;SDS011;5409;42.620;23.316;2022-09-27T02:22:34;35.22;;;12.65;;
10715;SDS011;5409;42.620;23.316;2022-09-27T02:25:01;48.70;;;11.57;;
10715;SDS011;5409;42.620;23.316;2022-09-27T02:27:31;44.28;;;11.85;;
10715;SDS011;5409;42.620;23.316;2022-09-27T02:29:59;28.67;;;10.75;;
10715;SDS011;5409;42.620;23.316;2022-09-27T02:32:27;53.03;;;12.57;;
10715;SDS011;5409;42.620;23.316;2022-09-27T02:34:54;12.15;;;9.57;;
10715;SDS011;5409;42.620;23.316;2022-09-27T02:37:23;12.88;;;11.00;;
10715;SDS011;5409;42.620;23.316;2022-09-27T02:39:49;13.82;;;10.38;;
10715;SDS011;5409;42.620;23.316;2022-09-27T02:42:16;15.30;;;10.38;;
10715;SDS011;5409;42.620;23.316;2022-09-27T02:44:42;11.43;;;10.07;;
10715;SDS011;5409;42.620;23.316;2022-09-27T02:47:18;12.23;;;10.45;;
10715;SDS011;5409;42.620;23.316;2022-09-27T02:49:53;14.60;;;10.65;;
10715;SDS011;5409;42.620;23.316;2022-09-27T02:52:28;9.27;;;8.05;;
10715;SDS011;5409;42.620;23.316;2022-09-27T02:55:00;9.52;;;8.27;;
10715;SDS011;5409;42.620;23.316;2022-09-27T02:57:33;12.45;;;9.07;;
10715;SDS011;5409;42.620;23.316;2022-09-27T03:00:03;11.82;;;9.60;;
10715;SDS011;5409;42.620;23.316;2022-09-27T03:02:31;11.13;;;9.20;;
10715;SDS011;5409;42.620;23.316;2022-09-27T03:05:01;14.23;;;10.43;;
10715;SDS011;5409;42.620;23.316;2022-09-27T03:07:30;11.48;;;9.88;;
10715;SDS011;5409;42.620;23.316;2022-09-27T03:09:56;11.93;;;9.02;;
10715;SDS011;5409;42.620;23.316;2022-09-27T03:12:23;24.17;;;11.93;;
10715;SDS011;5409;42.620;23.316;2022-09-27T03:14:51;12.25;;;10.77;;
10715;SDS011;5409;42.620;23.316;2022-09-27T03:17:17;12.63;;;10.07;;
10715;SDS011;5409;42.620;23.316;2022-09-27T03:19:44;11.45;;;10.25;;
10715;SDS011;5409;42.620;23.316;2022-09-27T03:22:10;12.23;;;10.75;;
10715;SDS011;5409;42.620;23.316;2022-09-27T03:24:38;15.50;;;10.63;;
10715;SDS011;5409;42.620;23.316;2022-09-27T03:27:04;16.63;;;11.10;;
10715;SDS011;5409;42.620;23.316;2022-09-27T03:29:31;214.27;;;20.00;;
10715;SDS011;5409;42.620;23.316;2022-09-27T03:31:57;22.92;;;12.57;;
10715;SDS011;5409;42.620;23.316;2022-09-27T03:34:24;201.68;;;20.05;;
10715;SDS011;5409;42.620;23.316;2022-09-27T03:36:50;64.38;;;14.43;;
10715;SDS011;5409;42.620;23.316;2022-09-27T03:39:17;69.00;;;13.90;;
10715;SDS011;5409;42.620;23.316;2022-09-27T03:41:45;93.40;;;13.73;;
10715;SDS011;5409;42.620;23.316;2022-09-27T03:44:11;13.15;;;11.00;;
10715;SDS011;5409;42.620;23.316;2022-09-27T03:46:37;12.98;;;10.75;;
10715;SDS011;5409;42.620;23.316;2022-09-27T03:49:04;14.63;;;11.57;;
10715;SDS011;5409;42.620;23.316;2022-09-27T03:51:30;16.98;;;12.40;;
10715;SDS011;5409;42.620;23.316;2022-09-27T03:53:57;13.88;;;11.05;;
10715;SDS011;5409;42.620;23.316;2022-09-27T03:56:23;17.58;;;11.30;;
10715;SDS011;5409;42.620;23.316;2022-09-27T03:58:51;15.65;;;10.40;;
10715;SDS011;5409;42.620;23.316;2022-09-27T04:01:18;13.95;;;10.40;;
10715;SDS011;5409;42.620;23.316;2022-09-27T04:03:44;10.98;;;9.82;;
10715;SDS011;5409;42.620;23.316;2022-09-27T04:06:11;11.93;;;10.63;;
10715;SDS011;5409;42.620;23.316;2022-09-27T04:08:38;14.50;;;12.00;;
10715;SDS011;5409;42.620;23.316;2022-09-27T04:11:04;11.70;;;10.10;;
10715;SDS011;5409;42.620;23.316;2022-09-27T04:13:31;12.93;;;9.95;;
10715;SDS011;5409;42.620;23.316;2022-09-27T04:15:59;11.98;;;9.88;;
10715;SDS011;5409;42.620;23.316;2022-09-27T04:18:26;16.23;;;10.63;;
10715;SDS011;5409;42.620;23.316;2022-09-27T04:20:53;17.65;;;11.38;;
10715;SDS011;5409;42.620;23.316;2022-09-27T04:23:19;12.73;;;10.02;;
10715;SDS011;5409;42.620;23.316;2022-09-27T04:25:46;10.30;;;9.18;;
10715;SDS011;5409;42.620;23.316;2022-09-27T04:28:12;13.93;;;9.98;;
10715;SDS011;5409;42.620;23.316;2022-09-27T04:30:39;12.93;;;10.98;;
10715;SDS011;5409;42.620;23.316;2022-09-27T04:33:07;13.45;;;9.50;;
10715;SDS011;5409;42.620;23.316;2022-09-27T04:35:34;13.18;;;10.15;;
10715;SDS011;5409;42.620;23.316;2022-09-27T04:38:18;10.38;;;8.55;;
10715;SDS011;5409;42.620;23.316;2022-09-27T04:40:47;13.50;;;9.23;;
10715;SDS011;5409;42.620;23.316;2022-09-27T04:43:14;10.82;;;8.63;;
10715;SDS011;5409;42.620;23.316;2022-09-27T04:45:41;11.48;;;9.25;;
10715;SDS011;5409;42.620;23.316;2022-09-27T04:48:09;12.43;;;9.45;;
10715;SDS011;5409;42.620;23.316;2022-09-27T04:50:36;10.80;;;9.15;;
10715;SDS011;5409;42.620;23.316;2022-09-27T04:53:03;12.88;;;9.35;;
10715;SDS011;5409;42.620;23.316;2022-09-27T04:55:30;14.27;;;11.32;;
10715;SDS011;5409;42.620;23.316;2022-09-27T04:57:56;17.83;;;14.50;;
10715;SDS011;5409;42.620;23.316;2022-09-27T05:00:23;19.73;;;14.00;;
10715;SDS011;5409;42.620;23.316;2022-09-27T05:02:50;16.58;;;13.98;;
10715;SDS011;5409;42.620;23.316;2022-09-27T05:05:17;17.48;;;13.50;;
10715;SDS011;5409;42.620;23.316;2022-09-27T05:07:44;14.82;;;13.23;;
10715;SDS011;5409;42.620;23.316;2022-09-27T05:10:10;15.68;;;13.48;;
10715;SDS011;5409;42.620;23.316;2022-09-27T05:12:37;13.02;;;10.75;;
10715;SDS011;5409;42.620;23.316;2022-09-27T05:15:04;16.70;;;12.63;;
10715;SDS011;5409;42.620;23.316;2022-09-27T05:17:30;16.50;;;13.15;;
10715;SDS011;5409;42.620;23.316;2022-09-27T05:19:58;13.90;;;12.35;;
10715;SDS011;5409;42.620;23.316;2022-09-27T05:22:26;14.77;;;11.68;;
10715;SDS011;5409;42.620;23.316;2022-09-27T05:24:52;13.75;;;11.07;;
10715;SDS011;5409;42.620;23.316;2022-09-27T05:27:19;12.10;;;10.82;;
10715;SDS011;5409;42.620;23.316;2022-09-27T05:29:45;14.20;;;10.48;;
10715;SDS011;5409;42.620;23.316;2022-09-27T05:32:12;13.43;;;11.07;;
10715;SDS011;5409;42.620;23.316;2022-09-27T05:34:38;13.45;;;11.15;;
10715;SDS011;5409;42.620;23.316;2022-09-27T05:37:05;18.48;;;12.63;;
10715;SDS011;5409;42.620;23.316;2022-09-27T05:39:33;15.68;;;12.25;;
10715;SDS011;5409;42.620;23.316;2022-09-27T05:41:59;17.17;;;11.68;;
10715;SDS011;5409;42.620;23.316;2022-09-27T05:44:26;14.38;;;12.15;;
10715;SDS011;5409;42.620;23.316;2022-09-27T05:46:53;12.73;;;10.60;;
10715;SDS011;5409;42.620;23.316;2022-09-27T05:49:19;12.82;;;11.32;;
10715;SDS011;5409;42.620;23.316;2022-09-27T05:51:46;11.98;;;10.63;;
10715;SDS011;5409;42.620;23.316;2022-09-27T05:54:12;13.77;;;12.20;;
10715;SDS011;5409;42.620;23.316;2022-09-27T05:56:40;19.55;;;16.88;;
10715;SDS011;5409;42.620;23.316;2022-09-27T05:59:07;15.82;;;13.50;;
10715;SDS011;5409;42.620;23.316;2022-09-27T06:01:33;18.63;;;14.38;;
10715;SDS011;5409;42.620;23.316;2022-09-27T06:04:00;12.07;;;10.77;;
10715;SDS011;5409;42.620;23.316;2022-09-27T06:06:27;13.15;;;10.90;;
10715;SDS011;5409;42.620;23.316;2022-09-27T06:08:54;11.75;;;10.38;;
10715;SDS011;5409;42.620;23.316;2022-09-27T06:11:20;12.68;;;9.88;;
10715;SDS011;5409;42.620;23.316;2022-09-27T06:13:48;9.45;;;8.23;;
10715;SDS011;5409;42.620;23.316;2022-09-27T06:16:14;10.27;;;8.02;;
10715;SDS011;5409;42.620;23.316;2022-09-27T06:18:41;11.75;;;9.50;;
10715;SDS011;5409;42.620;23.316;2022-09-27T06:21:08;10.88;;;9.57;;
10715;SDS011;5409;42.620;23.316;2022-09-27T06:23:34;9.98;;;8.95;;
10715;SDS011;5409;42.620;23.316;2022-09-27T06:26:01;10.68;;;9.57;;
10715;SDS011;5409;42.620;23.316;2022-09-27T06:28:28;331.75;;;30.52;;
10715;SDS011;5409;42.620;23.316;2022-09-27T06:30:56;322.23;;;28.15;;
10715;SDS011;5409;42.620;23.316;2022-09-27T06:33:24;335.85;;;29.13;;
10715;SDS011;5409;42.620;23.316;2022-09-27T06:35:52;740.78;;;47.85;;
10715;SDS011;5409;42.620;23.316;2022-09-27T06:38:18;117.00;;;23.08;;
10715;SDS011;5409;42.620;23.316;2022-09-27T06:40:46;48.97;;;20.00;;
10715;SDS011;5409;42.620;23.316;2022-09-27T06:43:13;30.83;;;21.27;;
10715;SDS011;5409;42.620;23.316;2022-09-27T06:45:40;26.00;;;19.98;;
10715;SDS011;5409;42.620;23.316;2022-09-27T06:48:08;23.58;;;20.23;;
10715;SDS011;5409;42.620;23.316;2022-09-27T06:50:37;24.35;;;19.70;;
10715;SDS011;5409;42.620;23.316;2022-09-27T06:53:04;21.85;;;18.40;;
10715;SDS011;5409;42.620;23.316;2022-09-27T06:55:31;23.70;;;17.95;;
10715;SDS011;5409;42.620;23.316;2022-09-27T06:57:58;21.52;;;18.10;;
10715;SDS011;5409;42.620;23.316;2022-09-27T07:00:39;23.05;;;18.17;;
10715;SDS011;5409;42.620;23.316;2022-09-27T07:03:08;25.90;;;19.48;;
10715;SDS011;5409;42.620;23.316;2022-09-27T07:05:35;20.48;;;17.27;;
10715;SDS011;5409;42.620;23.316;2022-09-27T07:08:02;20.92;;;16.80;;
10715;SDS011;5409;42.620;23.316;2022-09-27T07:10:29;20.15;;;16.85;;
10715;SDS011;5409;42.620;23.316;2022-09-27T07:13:01;22.45;;;18.38;;
10715;SDS011;5409;42.620;23.316;2022-09-27T07:15:29;22.17;;;18.33;;
10715;SDS011;5409;42.620;23.316;2022-09-27T07:17:56;27.35;;;18.52;;
10715;SDS011;5409;42.620;23.316;2022-09-27T07:20:24;23.73;;;18.73;;
10715;SDS011;5409;42.620;23.316;2022-09-27T07:22:51;23.70;;;19.40;;
10715;SDS011;5409;42.620;23.316;2022-09-27T07:25:17;22.98;;;18.58;;
10715;SDS011;5409;42.620;23.316;2022-09-27T07:27:44;21.55;;;17.70;;
10715;SDS011;5409;42.620;23.316;2022-09-27T07:30:11;22.80;;;20.35;;
10715;SDS011;5409;42.620;23.316;2022-09-27T07:32:37;25.05;;;20.50;;
10715;SDS011;5409;42.620;23.316;2022-09-27T07:35:04;29.00;;;22.55;;
10715;SDS011;5409;42.620;23.316;2022-09-27T07:37:33;25.42;;;22.10;;
10715;SDS011;5409;42.620;23.316;2022-09-27T07:40:00;29.35;;;24.23;;
10715;SDS011;5409;42.620;23.316;2022-09-27T07:42:26;32.88;;;23.63;;
10715;SDS011;5409;42.620;23.316;2022-09-27T07:44:53;26.40;;;22.33;;
10715;SDS011;5409;42.620;23.316;2022-09-27T07:47:19;25.90;;;22.75;;
10715;SDS011;5409;42.620;23.316;2022-09-27T07:49:48;26.30;;;22.20;;
10715;SDS011;5409;42.620;23.316;2022-09-27T07:52:14;24.15;;;20.77;;
10715;SDS011;5409;42.620;23.316;2022-09-27T07:54:42;132.32;;;23.85;;
10715;SDS011;5409;42.620;23.316;2022-09-27T07:57:08;233.73;;;26.63;;
10715;SDS011;5409;42.620;23.316;2022-09-27T07:59:35;76.65;;;18.90;;
10715;SDS011;5409;42.620;23.316;2022-09-27T08:02:01;23.77;;;15.52;;
10715;SDS011;5409;42.620;23.316;2022-09-27T08:04:28;18.85;;;16.83;;
10715;SDS011;5409;42.620;23.316;2022-09-27T08:06:54;19.40;;;17.33;;
10715;SDS011;5409;42.620;23.316;2022-09-27T08:09:21;20.92;;;18.73;;
10715;SDS011;5409;42.620;23.316;2022-09-27T08:11:51;31.63;;;20.83;;
10715;SDS011;5409;42.620;23.316;2022-09-27T08:14:18;75.20;;;21.42;;
10715;SDS011;5409;42.620;23.316;2022-09-27T08:16:44;22.08;;;19.25;;
10715;SDS011;5409;42.620;23.316;2022-09-27T08:19:11;22.92;;;20.52;;
10715;SDS011;5409;42.620;23.316;2022-09-27T08:21:39;28.00;;;21.83;;
10715;SDS011;5409;42.620;23.316;2022-09-27T08:24:05;35.65;;;23.08;;
10715;SDS011;5409;42.620;23.316;2022-09-27T08:26:32;24.98;;;21.83;;
10715;SDS011;5409;42.620;23.316;2022-09-27T08:29:00;24.20;;;21.38;;
10715;SDS011;5409;42.620;23.316;2022-09-27T08:31:26;24.63;;;21.02;;
10715;SDS011;5409;42.620;23.316;2022-09-27T08:33:53;23.88;;;20.85;;
10715;SDS011;5409;42.620;23.316;2022-09-27T08:36:20;21.58;;;18.67;;
10715;SDS011;5409;42.620;23.316;2022-09-27T08:38:48;16.52;;;14.82;;
10715;SDS011;5409;42.620;23.316;2022-09-27T08:41:15;14.02;;;12.73;;
10715;SDS011;5409;42.620;23.316;2022-09-27T08:43:46;16.23;;;14.50;;
10715;SDS011;5409;42.620;23.316;2022-09-27T08:46:19;15.90;;;14.18;;
10715;SDS011;5409;42.620;23.316;2022-09-27T08:48:53;16.15;;;14.45;;
10715;SDS011;5409;42.620;23.316;2022-09-27T08:51:26;20.38;;;16.75;;
10715;SDS011;5409;42.620;23.316;2022-09-27T08:53:54;18.67;;;16.77;;
10715;SDS011;5409;42.620;23.316;2022-09-27T08:56:22;16.15;;;14.55;;
10715;SDS011;5409;42.620;23.316;2022-09-27T08:58:49;16.42;;;14.82;;
10715;SDS011;5409;42.620;23.316;2022-09-27T09:01:17;16.70;;;15.00;;
10715;SDS011;5409;42.620;23.316;2022-09-27T09:03:46;15.35;;;13.82;;
10715;SDS011;5409;42.620;23.316;2022-09-27T09:06:15;11.52;;;10.38;;
10715;SDS011;5409;42.620;23.316;2022-09-27T09:08:47;14.23;;;10.95;;
10715;SDS011;5409;42.620;23.316;2022-09-27T09:11:18;11.43;;;10.30;;
10715;SDS011;5409;42.620;23.316;2022-09-27T09:14:15;10.18;;;9.18;;
10715;SDS011;5409;42.620;23.316;2022-09-27T09:16:44;9.07;;;8.27;;
10715;SDS011;5409;42.620;23.316;2022-09-27T09:19:17;11.05;;;9.95;;
10715;SDS011;5409;42.620;23.316;2022-09-27T09:21:51;10.20;;;9.15;;
10715;SDS011;5409;42.620;23.316;2022-09-27T09:24:25;10.60;;;9.70;;
10715;SDS011;5409;42.620;23.316;2022-09-27T09:26:56;10.68;;;9.65;;
10715;SDS011;5409;42.620;23.316;2022-09-27T09:29:28;10.07;;;9.07;;
10715;SDS011;5409;42.620;23.316;2022-09-27T09:32:00;11.90;;;10.77;;
10715;SDS011;5409;42.620;23.316;2022-09-27T09:34:32;11.60;;;9.45;;
10715;SDS011;5409;42.620;23.316;2022-09-27T09:37:00;9.65;;;8.55;;
10715;SDS011;5409;42.620;23.316;2022-09-27T09:39:31;11.00;;;9.90;;
10715;SDS011;5409;42.620;23.316;2022-09-27T09:42:01;15.88;;;10.27;;
10715;SDS011;5409;42.620;23.316;2022-09-27T09:44:31;11.30;;;10.30;;
10715;SDS011;5409;42.620;23.316;2022-09-27T09:47:00;10.82;;;9.77;;
10715;SDS011;5409;42.620;23.316;2022-09-27T09:49:27;13.07;;;11.68;;
10715;SDS011;5409;42.620;23.316;2022-09-27T09:51:57;14.10;;;12.63;;
10715;SDS011;5409;42.620;23.316;2022-09-27T09:54:26;14.75;;;13.35;;
10715;SDS011;5409;42.620;23.316;2022-09-27T09:56:57;13.35;;;12.07;;
10715;SDS011;5409;42.620;23.316;2022-09-27T09:59:25;15.18;;;13.65;;
10715;SDS011;5409;42.620;23.316;2022-09-27T10:01:55;16.58;;;14.88;;
10715;SDS011;5409;42.620;23.316;2022-09-27T10:04:24;18.63;;;14.77;;
10715;SDS011;5409;42.620;23.316;2022-09-27T10:06:52;14.77;;;13.38;;
10715;SDS011;5409;42.620;23.316;2022-09-27T10:09:21;15.55;;;13.23;;
10715;SDS011;5409;42.620;23.316;2022-09-27T10:11:49;14.13;;;12.13;;
10715;SDS011;5409;42.620;23.316;2022-09-27T10:14:16;15.45;;;13.73;;
10715;SDS011;5409;42.620;23.316;2022-09-27T10:16:43;12.98;;;11.50;;
10715;SDS011;5409;42.620;23.316;2022-09-27T10:19:11;17.00;;;11.82;;
10715;SDS011;5409;42.620;23.316;2022-09-27T10:21:39;12.63;;;11.32;;
10715;SDS011;5409;42.620;23.316;2022-09-27T10:24:10;14.50;;;10.80;;
10715;SDS011;5409;42.620;23.316;2022-09-27T10:26:38;12.85;;;11.30;;
10715;SDS011;5409;42.620;23.316;2022-09-27T10:29:13;14.25;;;11.93;;
10715;SDS011;5409;42.620;23.316;2022-09-27T10:31:41;14.45;;;11.80;;
10715;SDS011;5409;42.620;23.316;2022-09-27T10:34:16;12.20;;;11.00;;
10715;SDS011;5409;42.620;23.316;2022-09-27T10:36:43;12.90;;;11.60;;
10715;SDS011;5409;42.620;23.316;2022-09-27T10:39:20;13.26;;;11.96;;
10715;SDS011;5409;42.620;23.316;2022-09-27T10:41:49;12.65;;;11.45;;
10715;SDS011;5409;42.620;23.316;2022-09-27T10:44:19;14.50;;;11.63;;
10715;SDS011;5409;42.620;23.316;2022-09-27T10:46:47;9.43;;;8.57;;
10715;SDS011;5409;42.620;23.316;2022-09-27T10:49:16;4.40;;;4.03;;
10715;SDS011;5409;42.620;23.316;2022-09-27T10:51:44;3.90;;;3.50;;
10715;SDS011;5409;42.620;23.316;2022-09-27T10:54:18;3.70;;;3.40;;
10715;SDS011;5409;42.620;23.316;2022-09-27T10:56:46;3.22;;;3.03;;
10715;SDS011;5409;42.620;23.316;2022-09-27T10:59:20;3.10;;;2.90;;
10715;SDS011;5409;42.620;23.316;2022-09-27T11:01:48;3.00;;;2.65;;
10715;SDS011;5409;42.620;23.316;2022-09-27T11:04:19;3.22;;;2.92;;
10715;SDS011;5409;42.620;23.316;2022-09-27T11:06:46;2.70;;;2.50;;
10715;SDS011;5409;42.620;23.316;2022-09-27T11:09:17;7.70;;;2.40;;
10715;SDS011;5409;42.620;23.316;2022-09-27T11:11:44;2.53;;;2.33;;
10715;SDS011;5409;42.620;23.316;2022-09-27T11:14:18;3.45;;;2.55;;
10715;SDS011;5409;42.620;23.316;2022-09-27T11:16:53;2.50;;;2.30;;
10715;SDS011;5409;42.620;23.316;2022-09-27T11:19:33;2.67;;;2.10;;
10715;SDS011;5409;42.620;23.316;2022-09-27T11:22:04;2.25;;;2.10;;
10715;SDS011;5409;42.620;23.316;2022-09-27T11:24:42;2.20;;;2.00;;
10715;SDS011;5409;42.620;23.316;2022-09-27T11:27:15;2.40;;;2.20;;
10715;SDS011;5409;42.620;23.316;2022-09-27T11:29:47;3.72;;;2.05;;
10715;SDS011;5409;42.620;23.316;2022-09-27T11:32:21;2.65;;;2.45;;
10715;SDS011;5409;42.620;23.316;2022-09-27T11:35:03;2.53;;;1.70;;
10715;SDS011;5409;42.620;23.316;2022-09-27T11:37:34;3.75;;;2.00;;
10715;SDS011;5409;42.620;23.316;2022-09-27T11:40:13;2.15;;;1.95;;
10715;SDS011;5409;42.620;23.316;2022-09-27T11:42:45;2.75;;;2.55;;
10715;SDS011;5409;42.620;23.316;2022-09-27T11:45:21;2.60;;;2.40;;
10715;SDS011;5409;42.620;23.316;2022-09-27T11:47:52;3.40;;;2.50;;
10715;SDS011;5409;42.620;23.316;2022-09-27T11:53:07;2.50;;;2.30;;
10715;SDS011;5409;42.620;23.316;2022-09-27T11:55:39;2.00;;;1.80;;
10715;SDS011;5409;42.620;23.316;2022-09-27T11:58:08;4.13;;;2.58;;
10715;SDS011;5409;42.620;23.316;2022-09-27T12:00:40;2.30;;;2.10;;
10715;SDS011;5409;42.620;23.316;2022-09-27T12:06:02;2.80;;;2.50;;
10715;SDS011;5409;42.620;23.316;2022-09-27T12:08:40;3.55;;;2.40;;
10715;SDS011;5409;42.620;23.316;2022-09-27T12:11:11;3.50;;;3.10;;
10715;SDS011;5409;42.620;23.316;2022-09-27T12:13:40;6.65;;;3.33;;
10715;SDS011;5409;42.620;23.316;2022-09-27T12:16:08;2.42;;;2.22;;
10715;SDS011;5409;42.620;23.316;2022-09-27T12:18:36;4.05;;;2.53;;
10715;SDS011;5409;42.620;23.316;2022-09-27T12:21:05;4.32;;;2.70;;
10715;SDS011;5409;42.620;23.316;2022-09-27T12:23:35;2.38;;;2.05;;
10715;SDS011;5409;42.620;23.316;2022-09-27T12:26:05;2.20;;;1.88;;
10715;SDS011;5409;42.620;23.316;2022-09-27T12:28:35;1.98;;;1.65;;
10715;SDS011;5409;42.620;23.316;2022-09-27T12:31:06;2.08;;;1.40;;
10715;SDS011;5409;42.620;23.316;2022-09-27T12:33:35;2.20;;;1.52;;
10715;SDS011;5409;42.620;23.316;2022-09-27T12:36:06;1.70;;;1.60;;
10715;SDS011;5409;42.620;23.316;2022-09-27T12:38:36;3.33;;;1.25;;
10715;SDS011;5409;42.620;23.316;2022-09-27T12:41:05;1.10;;;1.10;;
10715;SDS011;5409;42.620;23.316;2022-09-27T12:43:33;1.50;;;1.40;;
10715;SDS011;5409;42.620;23.316;2022-09-27T12:46:02;1.60;;;1.15;;
10715;SDS011;5409;42.620;23.316;2022-09-27T12:48:35;1.60;;;1.50;;
10715;SDS011;5409;42.620;23.316;2022-09-27T12:51:05;2.15;;;1.60;;
10715;SDS011;5409;42.620;23.316;2022-09-27T12:53:38;1.77;;;1.65;;
10715;SDS011;5409;42.620;23.316;2022-09-27T12:56:22;1.30;;;1.20;;
10715;SDS011;5409;42.620;23.316;2022-09-27T13:01:43;1.60;;;1.50;;
10715;SDS011;5409;42.620;23.316;2022-09-27T13:04:17;1.00;;;1.00;;
10715;SDS011;5409;42.620;23.316;2022-09-27T13:06:49;2.95;;;1.00;;
10715;SDS011;5409;42.620;23.316;2022-09-27T13:12:04;2.13;;;1.90;;
10715;SDS011;5409;42.620;23.316;2022-09-27T13:14:38;3.78;;;1.90;;
10715;SDS011;5409;42.620;23.316;2022-09-27T13:17:05;2.17;;;1.77;;
10715;SDS011;5409;42.620;23.316;2022-09-27T13:19:41;3.53;;;1.77;;
10715;SDS011;5409;42.620;23.316;2022-09-27T13:22:10;1.80;;;1.50;;
10715;SDS011;5409;42.620;23.316;2022-09-27T13:24:57;1.20;;;1.10;;
10715;SDS011;5409;42.620;23.316;2022-09-27T13:27:40;1.30;;;1.20;;
10715;SDS011;5409;42.620;23.316;2022-09-27T13:35:30;4.10;;;1.20;;
10715;SDS011;5409;42.620;23.316;2022-09-27T13:37:57;6.28;;;2.20;;
10715;SDS011;5409;42.620;23.316;2022-09-27T13:40:26;1.50;;;1.40;;
10715;SDS011;5409;42.620;23.316;2022-09-27T13:45:35;1.40;;;1.15;;
10715;SDS011;5409;42.620;23.316;2022-09-27T13:48:07;2.13;;;1.40;;
10715;SDS011;5409;42.620;23.316;2022-09-27T13:50:36;1.02;;;0.93;;
10715;SDS011;5409;42.620;23.316;2022-09-27T13:53:05;1.45;;;1.00;;
10715;SDS011;5409;42.620;23.316;2022-09-27T13:55:38;2.05;;;1.10;;
10715;SDS011;5409;42.620;23.316;2022-09-27T13:58:11;1.23;;;1.13;;
10715;SDS011;5409;42.620;23.316;2022-09-27T14:00:39;1.13;;;0.98;;
10715;SDS011;5409;42.620;23.316;2022-09-27T14:03:13;0.95;;;0.90;;
10715;SDS011;5409;42.620;23.316;2022-09-27T14:05:45;1.58;;;0.90;;
10715;SDS011;5409;42.620;23.316;2022-09-27T14:08:13;0.90;;;0.90;;
10715;SDS011;5409;42.620;23.316;2022-09-27T14:10:45;2.25;;;1.25;;
10715;SDS011;5409;42.620;23.316;2022-09-27T14:13:13;0.73;;;0.73;;
10715;SDS011;5409;42.620;23.316;2022-09-27T14:15:43;1.60;;;1.10;;
10715;SDS011;5409;42.620;23.316;2022-09-27T14:18:10;1.02;;;0.93;;
10715;SDS011;5409;42.620;23.316;2022-09-27T14:20:39;1.30;;;1.20;;
10715;SDS011;5409;42.620;23.316;2022-09-27T14:23:11;1.73;;;1.08;;
10715;SDS011;5409;42.620;23.316;2022-09-27T14:25:43;2.33;;;1.10;;
10715;SDS011;5409;42.620;23.316;2022-09-27T14:28:19;1.17;;;1.08;;
10715;SDS011;5409;42.620;23.316;2022-09-27T14:30:45;3.05;;;1.25;;
10715;SDS011;5409;42.620;23.316;2022-09-27T14:33:25;1.30;;;1.15;;
10715;SDS011;5409;42.620;23.316;2022-09-27T14:35:52;2.50;;;1.38;;
10715;SDS011;5409;42.620;23.316;2022-09-27T14:38:36;1.17;;;0.95;;
10715;SDS011;5409;42.620;23.316;2022-09-27T14:41:05;2.40;;;1.30;;
10715;SDS011;5409;42.620;23.316;2022-09-27T14:43:34;1.40;;;1.30;;
10715;SDS011;5409;42.620;23.316;2022-09-27T14:46:01;1.40;;;1.30;;
10715;SDS011;5409;42.620;23.316;2022-09-27T14:48:31;1.33;;;1.23;;
10715;SDS011;5409;42.620;23.316;2022-09-27T14:50:59;2.15;;;1.50;;
10715;SDS011;5409;42.620;23.316;2022-09-27T14:53:28;2.42;;;1.70;;
10715;SDS011;5409;42.620;23.316;2022-09-27T14:55:55;1.70;;;1.30;;
10715;SDS011;5409;42.620;23.316;2022-09-27T14:58:22;2.30;;;1.60;;
10715;SDS011;5409;42.620;23.316;2022-09-27T15:00:51;1.05;;;1.05;;
10715;SDS011;5409;42.620;23.316;2022-09-27T15:03:19;2.70;;;1.70;;
10715;SDS011;5409;42.620;23.316;2022-09-27T15:05:48;1.60;;;1.50;;